createdAt,value
2016-09-28T00:00:33.363Z,94.46
2016-09-28T00:01:33.393Z,94.74
2016-09-28T00:02:33.402Z,94.74
2016-09-28T00:03:33.435Z,94.84
2016-09-28T00:04:33.442Z,94.07
2016-09-28T00:05:33.152Z,94.07
2016-09-28T00:06:33.485Z,94.65
2016-09-28T00:07:33.506Z,94.55
2016-09-28T00:08:33.523Z,94.36
2016-09-28T00:09:33.544Z,94.84
2016-09-28T00:10:33.254Z,94.55
2016-09-28T00:11:33.595Z,94.84
2016-09-28T00:12:33.615Z,94.74
2016-09-28T00:13:33.633Z,94.65
2016-09-28T00:14:33.328Z,94.55
2016-09-28T00:15:33.661Z,94.84
2016-09-28T00:16:33.691Z,94.55
2016-09-28T00:17:33.712Z,94.55
2016-09-28T00:18:33.724Z,93.88
2016-09-28T00:19:33.753Z,94.02
2016-09-28T00:20:33.780Z,94.12
2016-09-28T00:21:33.798Z,93.45
2016-09-28T00:22:33.812Z,93.74
2016-09-28T00:23:33.525Z,93.55
2016-09-28T00:24:33.841Z,93.65
2016-09-28T00:25:33.964Z,92.97
2016-09-28T00:26:34.250Z,92.69
2016-09-28T00:27:33.614Z,92.59
2016-09-28T00:28:33.626Z,92.5
2016-09-28T00:29:33.953Z,92.4
2016-09-28T00:30:33.981Z,92.5
2016-09-28T00:31:33.993Z,92.59
2016-09-28T00:32:34.016Z,91.83
2016-09-28T00:33:34.044Z,91.83
2016-09-28T00:34:33.748Z,92.02
2016-09-28T00:35:33.892Z,91.83
2016-09-28T00:36:33.794Z,91.93
2016-09-28T00:37:34.163Z,91.93
2016-09-28T00:38:34.192Z,91.54
2016-09-28T00:39:34.159Z,91.45
2016-09-28T00:40:34.193Z,91.59
2016-09-28T00:41:33.892Z,91.45
2016-09-28T00:42:34.235Z,91.68
2016-09-28T00:43:34.242Z,91.54
2016-09-28T00:44:34.262Z,91.39
2016-09-28T00:45:34.296Z,91.39
2016-09-28T00:46:34.382Z,91.11
2016-09-28T00:47:34.016Z,90.63
2016-09-28T00:48:34.485Z,90.92
2016-09-28T00:49:34.372Z,90.73
2016-09-28T00:50:34.391Z,90.25
2016-09-28T00:51:34.542Z,90.06
2016-09-28T00:52:34.434Z,89.58
2016-09-28T00:53:34.505Z,89.58
2016-09-28T00:54:34.470Z,89.77
2016-09-28T00:55:34.505Z,89.72
2016-09-28T00:56:34.584Z,89.24
2016-09-28T00:57:34.231Z,89.24
2016-09-28T00:58:34.248Z,89.15
2016-09-28T00:59:34.600Z,88.76
2016-09-28T01:00:34.602Z,88.48
2016-09-28T01:01:34.725Z,88.76
2016-09-28T01:02:34.641Z,88
2016-09-28T01:03:34.376Z,88.09
2016-09-28T01:04:34.692Z,87.9
2016-09-28T01:05:34.442Z,87.52
2016-09-28T01:06:34.730Z,87.52
2016-09-28T01:07:34.445Z,87.04
2016-09-28T01:08:34.771Z,87.23
2016-09-28T01:09:34.790Z,87.23
2016-09-28T01:10:34.812Z,87.33
2016-09-28T01:11:34.890Z,86.99
2016-09-28T01:12:34.971Z,86.32
2016-09-28T01:13:34.880Z,86.61
2016-09-28T01:14:34.939Z,86.41
2016-09-28T01:15:34.611Z,86.61
2016-09-28T01:16:35.041Z,86.7
2016-09-28T01:17:34.961Z,86.41
2016-09-28T01:18:34.668Z,86.7
2016-09-28T01:19:34.691Z,86.61
2016-09-28T01:20:34.708Z,86.51
2016-09-28T01:21:35.052Z,86.41
2016-09-28T01:22:34.764Z,86.41
2016-09-28T01:23:35.090Z,86.8
2016-09-28T01:24:35.108Z,86.8
2016-09-28T01:25:34.812Z,86.61
2016-09-28T01:26:34.851Z,86.61
2016-09-28T01:27:35.170Z,86.9
2016-09-28T01:28:34.885Z,86.04
2016-09-28T01:29:35.222Z,85.84
2016-09-28T01:30:34.926Z,85.75
2016-09-28T01:31:35.265Z,85.65
2016-09-28T01:32:35.277Z,85.08
2016-09-28T01:33:34.989Z,85.27
2016-09-28T01:34:35.020Z,84.69
2016-09-28T01:35:35.039Z,84.98
2016-09-28T01:36:35.372Z,84.31
2016-09-28T01:37:35.387Z,84.22
2016-09-28T01:38:35.108Z,84.12
2016-09-28T01:39:35.127Z,83.93
2016-09-28T01:40:35.460Z,84.06
2016-09-28T01:41:35.472Z,83.68
2016-09-28T01:42:35.184Z,83.68
2016-09-28T01:43:35.519Z,83.2
2016-09-28T01:44:35.235Z,83.68
2016-09-28T01:45:35.565Z,83.78
2016-09-28T01:46:35.654Z,83.49
2016-09-28T01:47:35.609Z,83.68
2016-09-28T01:48:35.628Z,83.01
2016-09-28T01:49:35.348Z,82.53
2016-09-28T01:50:35.679Z,82.63
2016-09-28T01:51:35.749Z,82.63
2016-09-28T01:52:35.719Z,82.24
2016-09-28T01:53:35.429Z,82.15
2016-09-28T01:54:35.461Z,82.06
2016-09-28T01:55:35.786Z,81.67
2016-09-28T01:56:35.487Z,81.48
2016-09-28T01:57:35.828Z,80.81
2016-09-28T01:58:35.846Z,80.81
2016-09-28T01:59:35.869Z,80.9
2016-09-28T02:00:35.906Z,80.71
2016-09-28T02:01:35.969Z,80.71
2016-09-28T02:02:35.936Z,80.04
2016-09-28T02:03:36.077Z,79.85
2016-09-28T02:04:35.976Z,79.89
2016-09-28T02:05:35.686Z,79.8
2016-09-28T02:06:36.027Z,80.08
2016-09-28T02:07:36.059Z,79.6
2016-09-28T02:08:36.063Z,79.51
2016-09-28T02:09:36.088Z,79.13
2016-09-28T02:10:36.118Z,78.93
2016-09-28T02:11:36.262Z,79.41
2016-09-28T02:12:36.255Z,79.41
2016-09-28T02:13:36.165Z,79.22
2016-09-28T02:14:36.195Z,79.22
2016-09-28T02:15:36.256Z,78.74
2016-09-28T02:16:36.322Z,79.03
2016-09-28T02:17:36.267Z,79.13
2016-09-28T02:18:35.988Z,78.84
2016-09-28T02:19:35.992Z,78.07
2016-09-28T02:20:36.336Z,78.55
2016-09-28T02:21:36.047Z,78.64
2016-09-28T02:22:36.381Z,78.07
2016-09-28T02:23:36.404Z,78.27
2016-09-28T02:24:36.418Z,78.45
2016-09-28T02:25:36.540Z,78.4
2016-09-28T02:26:36.300Z,78.45
2016-09-28T02:27:36.177Z,78.49
2016-09-28T02:28:36.516Z,78.45
2016-09-28T02:29:36.535Z,78.36
2016-09-28T02:30:36.559Z,78.27
2016-09-28T02:31:36.415Z,78.49
2016-09-28T02:32:36.599Z,77.88
2016-09-28T02:33:36.313Z,77.92
2016-09-28T02:34:36.646Z,78.07
2016-09-28T02:35:36.773Z,78.27
2016-09-28T02:36:36.731Z,77.88
2016-09-28T02:37:36.808Z,78.36
2016-09-28T02:38:36.741Z,78.07
2016-09-28T02:39:36.448Z,78.55
2016-09-28T02:40:36.776Z,78.64
2016-09-28T02:41:36.541Z,78.93
2016-09-28T02:42:36.817Z,78.93
2016-09-28T02:43:36.538Z,79.66
2016-09-28T02:44:36.865Z,79.03
2016-09-28T02:45:36.877Z,79.57
2016-09-28T02:46:37.010Z,79.85
2016-09-28T02:47:36.616Z,79.95
2016-09-28T02:48:37.027Z,79.75
2016-09-28T02:49:36.979Z,80.33
2016-09-28T02:50:37.099Z,80.62
2016-09-28T02:51:37.068Z,80.62
2016-09-28T02:52:36.731Z,80.81
2016-09-28T02:53:37.069Z,80.52
2016-09-28T02:54:37.105Z,80.52
2016-09-28T02:55:37.115Z,81.29
2016-09-28T02:56:37.240Z,81.67
2016-09-28T02:57:37.161Z,81.73
2016-09-28T02:58:36.869Z,81.73
2016-09-28T02:59:36.884Z,81.73
2016-09-28T03:00:37.220Z,81.44
2016-09-28T03:01:37.433Z,81.44
2016-09-28T03:02:37.478Z,81.73
2016-09-28T03:03:37.487Z,81.48
2016-09-28T03:04:37.308Z,81.63
2016-09-28T03:05:37.526Z,81.38
2016-09-28T03:06:37.663Z,80.96
2016-09-28T03:07:37.547Z,80.9
2016-09-28T03:08:37.545Z,81.1
2016-09-28T03:09:37.629Z,81.29
2016-09-28T03:10:37.224Z,81.2
2016-09-28T03:11:37.519Z,80.62
2016-09-28T03:12:37.224Z,80.71
2016-09-28T03:13:37.553Z,80.71
2016-09-28T03:14:37.527Z,80.71
2016-09-28T03:15:37.251Z,80.71
2016-09-28T03:16:37.568Z,80.9
2016-09-28T03:17:37.609Z,80.24
2016-09-28T03:18:37.616Z,80.24
2016-09-28T03:19:37.645Z,80.43
2016-09-28T03:20:37.351Z,80.14
2016-09-28T03:21:37.688Z,80.47
2016-09-28T03:22:37.711Z,79.95
2016-09-28T03:23:37.731Z,80.33
2016-09-28T03:24:37.760Z,80.24
2016-09-28T03:25:37.788Z,79.95
2016-09-28T03:26:37.845Z,80.04
2016-09-28T03:27:37.811Z,80.24
2016-09-28T03:28:37.839Z,80.33
2016-09-28T03:29:37.859Z,80.33
2016-09-28T03:30:37.877Z,79.75
2016-09-28T03:31:37.590Z,80.43
2016-09-28T03:32:37.930Z,80.18
2016-09-28T03:33:37.948Z,80.27
2016-09-28T03:34:37.656Z,80.47
2016-09-28T03:35:37.681Z,80.27
2016-09-28T03:36:38.009Z,80.37
2016-09-28T03:37:38.131Z,79.99
2016-09-28T03:38:38.053Z,80.37
2016-09-28T03:39:38.072Z,80.27
2016-09-28T03:40:38.107Z,79.8
2016-09-28T03:41:38.120Z,79.7
2016-09-28T03:42:38.143Z,80.08
2016-09-28T03:43:38.170Z,80.08
2016-09-28T03:44:38.188Z,79.41
2016-09-28T03:45:38.205Z,79.13
2016-09-28T03:46:38.303Z,79.8
2016-09-28T03:47:38.330Z,79.03
2016-09-28T03:48:38.376Z,79.22
2016-09-28T03:49:38.358Z,79.03
2016-09-28T03:50:38.320Z,79.51
2016-09-28T03:51:38.394Z,79.8
2016-09-28T03:52:38.058Z,79.8
2016-09-28T03:53:38.390Z,80.27
2016-09-28T03:54:38.411Z,79.89
2016-09-28T03:55:38.428Z,80.56
2016-09-28T03:56:38.460Z,79.89
2016-09-28T03:57:38.160Z,79.03
2016-09-28T03:58:38.237Z,79.22
2016-09-28T03:59:38.522Z,79.6
2016-09-28T04:00:38.605Z,79.51
2016-09-28T04:01:38.614Z,79.64
2016-09-28T04:02:38.642Z,79.07
2016-09-28T04:03:38.618Z,79.6
2016-09-28T04:04:38.635Z,80.22
2016-09-28T04:05:38.656Z,80.12
2016-09-28T04:06:38.681Z,79.99
2016-09-28T04:07:38.687Z,79.8
2016-09-28T04:08:38.400Z,79.03
2016-09-28T04:09:38.869Z,79.45
2016-09-28T04:10:38.759Z,80.12
2016-09-28T04:11:38.545Z,79.6
2016-09-28T04:12:38.801Z,79.41
2016-09-28T04:13:38.848Z,79.51
2016-09-28T04:14:38.552Z,79.36
2016-09-28T04:15:38.569Z,79.64
2016-09-28T04:16:38.900Z,79.64
2016-09-28T04:17:38.612Z,79.26
2016-09-28T04:18:38.630Z,79.36
2016-09-28T04:19:38.662Z,79.16
2016-09-28T04:20:38.993Z,79.26
2016-09-28T04:21:39.014Z,79.07
2016-09-28T04:22:39.044Z,79.26
2016-09-28T04:23:39.063Z,79.8
2016-09-28T04:24:39.090Z,79.45
2016-09-28T04:25:38.788Z,79.45
2016-09-28T04:26:38.866Z,79.83
2016-09-28T04:27:39.151Z,79.83
2016-09-28T04:28:39.169Z,80.32
2016-09-28T04:29:38.878Z,80.27
2016-09-28T04:30:38.900Z,80.32
2016-09-28T04:31:39.234Z,80.51
2016-09-28T04:32:38.952Z,80.27
2016-09-28T04:33:39.288Z,80.51
2016-09-28T04:34:39.307Z,80.32
2016-09-28T04:35:39.330Z,80.41
2016-09-28T04:36:39.349Z,81.08
2016-09-28T04:37:39.381Z,80.6
2016-09-28T04:38:39.386Z,80.22
2016-09-28T04:39:39.108Z,80.99
2016-09-28T04:40:39.127Z,80.7
2016-09-28T04:41:39.499Z,80.79
2016-09-28T04:42:39.482Z,80.79
2016-09-28T04:43:39.201Z,80.79
2016-09-28T04:44:39.209Z,80.79
2016-09-28T04:45:39.557Z,80.89
2016-09-28T04:46:39.581Z,80.79
2016-09-28T04:47:39.596Z,80.99
2016-09-28T04:48:39.620Z,80.99
2016-09-28T04:49:39.651Z,81.37
2016-09-28T04:50:39.677Z,81.46
2016-09-28T04:51:39.740Z,80.99
2016-09-28T04:52:39.723Z,81.27
2016-09-28T04:53:39.421Z,81.56
2016-09-28T04:54:39.761Z,81.75
2016-09-28T04:55:39.781Z,81.75
2016-09-28T04:56:39.484Z,81.75
2016-09-28T04:57:39.825Z,81.85
2016-09-28T04:58:39.863Z,81.85
2016-09-28T04:59:39.877Z,82.14
2016-09-28T05:00:39.920Z,82.42
2016-09-28T05:01:39.649Z,82.14
2016-09-28T05:02:39.934Z,82.23
2016-09-28T05:03:39.648Z,82.14
2016-09-28T05:04:39.978Z,82.62
2016-09-28T05:05:40.018Z,82.62
2016-09-28T05:06:40.037Z,82.42
2016-09-28T05:07:40.051Z,82.71
2016-09-28T05:08:39.890Z,82.9
2016-09-28T05:09:40.100Z,83.38
2016-09-28T05:10:40.121Z,83.58
2016-09-28T05:11:40.235Z,83.86
2016-09-28T05:12:40.164Z,83.38
2016-09-28T05:13:40.222Z,83.58
2016-09-28T05:14:39.901Z,83.67
2016-09-28T05:15:40.225Z,83.95
2016-09-28T05:16:40.294Z,84.15
2016-09-28T05:17:40.271Z,84.15
2016-09-28T05:18:40.307Z,83.95
2016-09-28T05:19:40.463Z,84.63
2016-09-28T05:20:40.343Z,84.82
2016-09-28T05:21:40.159Z,84.53
2016-09-28T05:22:40.448Z,84.34
2016-09-28T05:23:40.470Z,84.82
2016-09-28T05:24:40.431Z,84.53
2016-09-28T05:25:40.144Z,84.63
2016-09-28T05:26:40.468Z,84.72
2016-09-28T05:27:40.497Z,84.91
2016-09-28T05:28:40.530Z,85.01
2016-09-28T05:29:40.554Z,85.3
2016-09-28T05:30:40.554Z,85.49
2016-09-28T05:31:40.587Z,85.39
2016-09-28T05:32:40.723Z,85.49
2016-09-28T05:33:40.638Z,85.21
2016-09-28T05:34:40.762Z,85.21
2016-09-28T05:35:40.692Z,85.58
2016-09-28T05:36:40.398Z,86.16
2016-09-28T05:37:40.719Z,86.35
2016-09-28T05:38:40.451Z,86.25
2016-09-28T05:39:40.761Z,86.93
2016-09-28T05:40:40.781Z,87.31
2016-09-28T05:41:40.811Z,87.6
2016-09-28T05:42:40.838Z,87.88
2016-09-28T05:43:40.948Z,88.27
2016-09-28T05:44:40.898Z,88.65
2016-09-28T05:45:40.955Z,88.75
2016-09-28T05:46:40.930Z,88.94
2016-09-28T05:47:41.047Z,88.17
2016-09-28T05:48:40.971Z,88.65
2016-09-28T05:49:40.692Z,89.04
2016-09-28T05:50:41.031Z,88.94
2016-09-28T05:51:40.729Z,89.04
2016-09-28T05:52:41.070Z,89.32
2016-09-28T05:53:41.086Z,90
2016-09-28T05:54:40.801Z,89.8
2016-09-28T05:55:40.815Z,90.67
2016-09-28T05:56:41.206Z,90.05
2016-09-28T05:57:41.177Z,90.81
2016-09-28T05:58:41.199Z,91.1
2016-09-28T05:59:41.220Z,91.14
2016-09-28T06:00:40.926Z,91.14
2016-09-28T06:01:41.268Z,91
2016-09-28T06:02:41.288Z,90.86
2016-09-28T06:03:41.311Z,90.95
2016-09-28T06:04:41.352Z,90.86
2016-09-28T06:05:41.038Z,89.8
2016-09-28T06:06:41.376Z,87.93
2016-09-28T06:07:41.119Z,87.11
2016-09-28T06:08:41.423Z,86.87
2016-09-28T06:09:41.134Z,86.87
2016-09-28T06:10:41.464Z,86.44
2016-09-28T06:11:41.490Z,86.72
2016-09-28T06:12:41.199Z,87.3
2016-09-28T06:13:41.540Z,87.3
2016-09-28T06:14:41.572Z,87.59
2016-09-28T06:15:41.297Z,87.88
2016-09-28T06:16:41.620Z,88.45
2016-09-28T06:17:41.620Z,88.17
2016-09-28T06:18:41.351Z,88.45
2016-09-28T06:19:41.683Z,88.45
2016-09-28T06:20:41.390Z,88.35
2016-09-28T06:21:41.778Z,88.55
2016-09-28T06:22:41.430Z,88.07
2016-09-28T06:23:41.835Z,87.59
2016-09-28T06:24:41.782Z,87.68
2016-09-28T06:25:41.815Z,88.07
2016-09-28T06:26:41.844Z,87.78
2016-09-28T06:27:41.873Z,88.35
2016-09-28T06:28:41.878Z,88.45
2016-09-28T06:29:41.604Z,88.93
2016-09-28T06:30:41.610Z,88.74
2016-09-28T06:31:41.960Z,88.74
2016-09-28T06:32:41.980Z,88.7
2016-09-28T06:33:41.688Z,89.12
2016-09-28T06:34:42.080Z,88.79
2016-09-28T06:35:41.737Z,88.93
2016-09-28T06:36:42.071Z,86.1
2016-09-28T06:37:42.096Z,84.03
2016-09-28T06:38:41.811Z,81.57
2016-09-28T06:39:42.141Z,80.36
2016-09-28T06:40:42.162Z,79.73
2016-09-28T06:41:42.187Z,77.65
2016-09-28T06:42:42.296Z,75.96
2016-09-28T06:43:42.240Z,74.93
2016-09-28T06:44:42.355Z,74.4
2016-09-28T06:45:42.290Z,74.68
2016-09-28T06:46:42.307Z,74.49
2016-09-28T06:47:42.326Z,74.3
2016-09-28T06:48:42.359Z,73.91
2016-09-28T06:49:42.381Z,74.2
2016-09-28T06:50:42.410Z,75.8
2016-09-28T06:51:42.273Z,76.92
2016-09-28T06:52:42.467Z,77.5
2016-09-28T06:53:42.190Z,78.9
2016-09-28T06:54:42.518Z,80.44
2016-09-28T06:55:42.552Z,81.46
2016-09-28T06:56:42.659Z,82.38
2016-09-28T06:57:42.584Z,83.25
2016-09-28T06:58:42.626Z,83.87
2016-09-28T06:59:42.629Z,84.64
2016-09-28T07:00:42.700Z,85.32
2016-09-28T07:01:42.690Z,86.18
2016-09-28T07:02:42.701Z,86.24
2016-09-28T07:03:42.421Z,86.33
2016-09-28T07:04:42.769Z,86.72
2016-09-28T07:05:42.771Z,86.95
2016-09-28T07:06:42.952Z,86.85
2016-09-28T07:07:42.529Z,86.91
2016-09-28T07:08:42.850Z,86.66
2016-09-28T07:09:42.568Z,86.91
2016-09-28T07:10:42.900Z,87.39
2016-09-28T07:11:42.932Z,86.81
2016-09-28T07:12:42.640Z,86.95
2016-09-28T07:13:42.974Z,87.05
2016-09-28T07:14:42.689Z,87.05
2016-09-28T07:15:42.710Z,85.71
2016-09-28T07:16:43.052Z,85.46
2016-09-28T07:17:42.811Z,85.65
2016-09-28T07:18:43.091Z,85.75
2016-09-28T07:19:43.120Z,86.32
2016-09-28T07:20:43.139Z,86.32
2016-09-28T07:21:43.173Z,86.61
2016-09-28T07:22:43.191Z,87.19
2016-09-28T07:23:42.910Z,86.95
2016-09-28T07:24:42.941Z,86.61
2016-09-28T07:25:43.265Z,86.76
2016-09-28T07:26:43.289Z,87.43
2016-09-28T07:27:43.320Z,87.53
2016-09-28T07:28:43.337Z,86.76
2016-09-28T07:29:43.071Z,86.99
2016-09-28T07:30:43.080Z,86.32
2016-09-28T07:31:43.404Z,85.94
2016-09-28T07:32:43.442Z,85.94
2016-09-28T07:33:43.467Z,86.52
2016-09-28T07:34:43.490Z,86.32
2016-09-28T07:35:43.505Z,86.61
2016-09-28T07:36:43.535Z,86.52
2016-09-28T07:37:43.555Z,86.52
2016-09-28T07:38:43.579Z,86.8
2016-09-28T07:39:43.611Z,86.52
2016-09-28T07:40:43.652Z,86.22
2016-09-28T07:41:43.663Z,86.46
2016-09-28T07:42:43.383Z,86.32
2016-09-28T07:43:43.397Z,85.65
2016-09-28T07:44:43.737Z,85.75
2016-09-28T07:45:43.441Z,84.83
2016-09-28T07:46:43.801Z,85.78
2016-09-28T07:47:43.817Z,85.11
2016-09-28T07:48:43.857Z,85.5
2016-09-28T07:49:43.871Z,85.11
2016-09-28T07:50:43.880Z,85.4
2016-09-28T07:51:43.602Z,85.31
2016-09-28T07:52:43.942Z,84.25
2016-09-28T07:53:44.026Z,84.34
2016-09-28T07:54:43.972Z,83.62
2016-09-28T07:55:43.702Z,83.04
2016-09-28T07:56:44.041Z,83.52
2016-09-28T07:57:43.740Z,83.62
2016-09-28T07:58:44.064Z,83.72
2016-09-28T07:59:43.809Z,84.19
2016-09-28T08:00:44.141Z,84.1
2016-09-28T08:01:44.287Z,84.25
2016-09-28T08:02:43.871Z,84.92
2016-09-28T08:03:44.209Z,85.11
2016-09-28T08:04:43.931Z,85.4
2016-09-28T08:05:43.939Z,85.4
2016-09-28T08:06:44.285Z,85.5
2016-09-28T08:07:44.315Z,86.22
2016-09-28T08:08:44.072Z,86.13
2016-09-28T08:09:44.045Z,86.13
2016-09-28T08:10:44.394Z,86.42
2016-09-28T08:11:44.094Z,86.71
2016-09-28T08:12:44.518Z,86.52
2016-09-28T08:13:44.153Z,86.13
2016-09-28T08:14:44.583Z,86.61
2016-09-28T08:15:44.201Z,86.32
2016-09-28T08:16:44.524Z,86.8
2016-09-28T08:17:44.553Z,86.56
2016-09-28T08:18:44.582Z,86.65
2016-09-28T08:19:44.619Z,85.84
2016-09-28T08:20:44.321Z,86.32
2016-09-28T08:21:44.665Z,86.36
2016-09-28T08:22:44.374Z,86.52
2016-09-28T08:23:44.798Z,85.31
2016-09-28T08:24:44.742Z,85.4
2016-09-28T08:25:44.782Z,84.83
2016-09-28T08:26:44.483Z,84.1
2016-09-28T08:27:44.496Z,83.52
2016-09-28T08:28:44.844Z,83.81
2016-09-28T08:29:44.544Z,84.97
2016-09-28T08:30:44.603Z,85.21
2016-09-28T08:31:44.587Z,84.58
2016-09-28T08:32:44.627Z,84.19
2016-09-28T08:33:44.639Z,84.25
2016-09-28T08:34:44.992Z,84.92
2016-09-28T08:35:45.005Z,85.5
2016-09-28T08:36:45.042Z,85.6
2016-09-28T08:37:45.081Z,86.18
2016-09-28T08:38:45.074Z,85.54
2016-09-28T08:39:45.089Z,85.16
2016-09-28T08:40:44.814Z,85.06
2016-09-28T08:41:44.846Z,84.1
2016-09-28T08:42:45.181Z,84.29
2016-09-28T08:43:45.200Z,84.19
2016-09-28T08:44:45.235Z,83.62
2016-09-28T08:45:45.249Z,83.91
2016-09-28T08:46:45.283Z,83.85
2016-09-28T08:47:45.302Z,83.75
2016-09-28T08:48:45.004Z,83.56
2016-09-28T08:49:45.352Z,83.28
2016-09-28T08:50:45.367Z,83.18
2016-09-28T08:51:45.398Z,82.89
2016-09-28T08:52:45.437Z,82.98
2016-09-28T08:53:45.450Z,83.18
2016-09-28T08:54:45.473Z,83.66
2016-09-28T08:55:45.500Z,83.08
2016-09-28T08:56:45.531Z,82.79
2016-09-28T08:57:45.549Z,82.5
2016-09-28T08:58:45.267Z,82.12
2016-09-28T08:59:45.601Z,81.93
2016-09-28T09:00:45.630Z,82.7
2016-09-28T09:01:45.713Z,82.21
2016-09-28T09:02:45.371Z,81.96
2016-09-28T09:03:45.703Z,81.1
2016-09-28T09:04:45.732Z,81.33
2016-09-28T09:05:45.438Z,79.98
2016-09-28T09:06:45.784Z,79.31
2016-09-28T09:07:45.490Z,79.21
2016-09-28T09:08:45.832Z,79.02
2016-09-28T09:09:45.860Z,79.41
2016-09-28T09:10:45.992Z,80.46
2016-09-28T09:11:45.910Z,79.89
2016-09-28T09:12:45.937Z,78.92
2016-09-28T09:13:45.961Z,79.31
2016-09-28T09:14:45.983Z,80.08
2016-09-28T09:15:46.010Z,79.11
2016-09-28T09:16:45.730Z,79.5
2016-09-28T09:17:46.074Z,79.5
2016-09-28T09:19:46.109Z,80.52
2016-09-28T09:20:46.129Z,80.62
2016-09-28T09:21:46.171Z,80.71
2016-09-28T09:22:46.193Z,81.39
2016-09-28T09:23:46.210Z,81.45
2016-09-28T09:24:46.236Z,82.21
2016-09-28T09:25:46.273Z,80.68
2016-09-28T09:26:46.299Z,80.58
2016-09-28T09:27:46.016Z,80.68
2016-09-28T09:28:46.362Z,81.73
2016-09-28T09:29:46.455Z,82.89
2016-09-28T09:30:46.408Z,81.93
2016-09-28T09:31:46.416Z,82.21
2016-09-28T09:32:46.442Z,82.79
2016-09-28T09:33:46.470Z,82.79
2016-09-28T09:34:46.500Z,81.63
2016-09-28T09:35:46.517Z,81.35
2016-09-28T09:36:46.957Z,81.35
2016-09-28T09:37:46.572Z,82.02
2016-09-28T09:38:46.732Z,81.73
2016-09-28T09:39:46.628Z,81.16
2016-09-28T09:40:46.748Z,80.68
2016-09-28T09:41:46.371Z,80.68
2016-09-28T09:42:46.725Z,80.68
2016-09-28T09:43:46.418Z,80.14
2016-09-28T09:44:46.444Z,79.36
2016-09-28T09:46:18.762Z,79.46
2016-09-28T09:46:47.057Z,78.5
2016-09-28T09:47:47.235Z,78.63
2016-09-28T09:48:47.062Z,77
2016-09-28T09:49:47.032Z,76.07
2016-09-28T09:50:47.054Z,75.82
2016-09-28T09:51:46.710Z,74.85
2016-09-28T09:52:47.007Z,75.37
2016-09-28T09:53:47.039Z,74.41
2016-09-28T09:54:47.057Z,74.99
2016-09-28T09:55:47.039Z,74.66
2016-09-28T09:56:46.811Z,75.05
2016-09-28T09:57:46.785Z,75.14
2016-09-28T09:58:47.103Z,75.59
2016-09-28T09:59:47.139Z,76.1
2016-09-28T10:00:47.171Z,76.2
2016-09-28T10:01:47.195Z,76.26
2016-09-28T10:02:47.421Z,75.97
2016-09-28T10:03:47.251Z,76.07
2016-09-28T10:04:47.264Z,75.97
2016-09-28T10:05:47.088Z,75.36
2016-09-28T10:06:47.332Z,75.88
2016-09-28T10:07:47.362Z,75.01
2016-09-28T10:08:47.394Z,75.49
2016-09-28T10:09:47.406Z,75.3
2016-09-28T10:10:47.124Z,74.43
2016-09-28T10:11:47.453Z,74.52
2016-09-28T10:12:47.182Z,74.85
2016-09-28T10:13:47.523Z,73.6
2016-09-28T10:14:47.543Z,72.73
2016-09-28T10:15:47.261Z,72.63
2016-09-28T10:16:47.596Z,73.21
2016-09-28T10:17:47.624Z,72.63
2016-09-28T10:18:47.644Z,72.09
2016-09-28T10:19:47.671Z,71.22
2016-09-28T10:20:47.743Z,70.94
2016-09-28T10:21:47.720Z,70.94
2016-09-28T10:22:47.441Z,71.22
2016-09-28T10:23:47.839Z,70.68
2016-09-28T10:24:47.824Z,70.58
2016-09-28T10:25:47.844Z,70.04
2016-09-28T10:26:47.856Z,69.65
2016-09-28T10:27:47.882Z,70.04
2016-09-28T10:28:47.914Z,69.84
2016-09-28T10:29:47.945Z,67.82
2016-09-28T10:30:47.975Z,68.68
2016-09-28T10:31:47.988Z,69.17
2016-09-28T10:32:48.012Z,68.78
2016-09-28T10:33:47.741Z,67.82
2016-09-28T10:34:47.773Z,66.85
2016-09-28T10:35:48.116Z,66.85
2016-09-28T10:36:47.821Z,66.75
2016-09-28T10:37:48.166Z,66.98
2016-09-28T10:38:48.191Z,65.82
2016-09-28T10:39:48.222Z,64.95
2016-09-28T10:40:47.927Z,64.66
2016-09-28T10:41:47.965Z,65.34
2016-09-28T10:42:48.313Z,65.66
2016-09-28T10:43:48.457Z,65.24
2016-09-28T10:44:48.137Z,64.59
2016-09-28T10:45:48.429Z,64.21
2016-09-28T10:46:48.108Z,64.69
2016-09-28T10:47:48.448Z,64.59
2016-09-28T10:48:48.153Z,64.31
2016-09-28T10:49:48.503Z,63.92
2016-09-28T10:50:48.535Z,63.82
2016-09-28T10:51:48.550Z,64.01
2016-09-28T10:52:48.606Z,64.01
2016-09-28T10:53:48.416Z,64.31
2016-09-28T10:54:48.720Z,63.98
2016-09-28T10:55:48.764Z,64.21
2016-09-28T10:56:48.724Z,64.31
2016-09-28T10:57:48.412Z,64.5
2016-09-28T10:58:48.443Z,64.72
2016-09-28T10:59:48.789Z,65.01
2016-09-28T11:00:48.810Z,64.04
2016-09-28T11:01:48.860Z,63.37
2016-09-28T11:02:48.865Z,63.46
2016-09-28T11:03:48.900Z,63.46
2016-09-28T11:04:48.619Z,63.66
2016-09-28T11:05:48.634Z,63.76
2016-09-28T11:06:48.979Z,63.56
2016-09-28T11:07:48.695Z,63.76
2016-09-28T11:08:48.722Z,63.08
2016-09-28T11:09:48.755Z,62.5
2016-09-28T11:10:48.786Z,63.08
2016-09-28T11:11:48.801Z,62.88
2016-09-28T11:12:48.835Z,62.79
2016-09-28T11:13:48.864Z,62.14
2016-09-28T11:14:49.206Z,61.08
2016-09-28T11:15:49.234Z,61.27
2016-09-28T11:16:49.255Z,61.76
2016-09-28T11:17:48.981Z,61.05
2016-09-28T11:18:49.312Z,62.59
2016-09-28T11:19:49.354Z,61.92
2016-09-28T11:20:49.372Z,62.88
2016-09-28T11:21:49.407Z,62.5
2016-09-28T11:22:49.437Z,62.3
2016-09-28T11:23:49.147Z,62.3
2016-09-28T11:24:49.185Z,62.79
2016-09-28T11:25:49.209Z,62.11
2016-09-28T11:26:49.543Z,61.36
2016-09-28T11:27:49.568Z,60.11
2016-09-28T11:28:49.604Z,60.21
2016-09-28T11:29:49.634Z,60.14
2016-09-28T11:30:49.674Z,60.14
2016-09-28T11:31:49.712Z,59.91
2016-09-28T11:32:49.417Z,59.63
2016-09-28T11:33:49.751Z,60.4
2016-09-28T11:34:49.791Z,59.53
2016-09-28T11:35:50.003Z,59.91
2016-09-28T11:36:49.725Z,59.63
2016-09-28T11:37:50.028Z,59.5
2016-09-28T11:38:50.049Z,59.4
2016-09-28T11:39:50.019Z,60.57
2016-09-28T11:40:50.069Z,60.57
2016-09-28T11:41:50.030Z,60.17
2016-09-28T11:42:50.064Z,59.95
2016-09-28T11:43:50.098Z,60.34
2016-09-28T11:44:50.115Z,60.34
2016-09-28T11:45:50.086Z,61.02
2016-09-28T11:46:50.134Z,60.72
2016-09-28T11:47:50.179Z,61.11
2016-09-28T11:48:50.170Z,60.05
2016-09-28T11:49:49.903Z,59.66
2016-09-28T11:50:50.232Z,59.4
2016-09-28T11:51:50.071Z,59.4
2016-09-28T11:52:49.984Z,59.95
2016-09-28T11:53:50.323Z,60.44
2016-09-28T11:54:50.351Z,61.02
2016-09-28T11:55:50.384Z,61.43
2016-09-28T11:56:50.100Z,60.95
2016-09-28T11:57:50.146Z,61.15
2016-09-28T11:58:50.464Z,60.47
2016-09-28T11:59:50.183Z,60.57
2016-09-28T12:00:50.523Z,60.37
2016-09-28T12:01:50.556Z,60.08
2016-09-28T12:02:50.577Z,60.85
2016-09-28T12:03:50.602Z,60.17
2016-09-28T12:04:50.763Z,60.75
2016-09-28T12:05:50.663Z,60.17
2016-09-28T12:06:50.723Z,59.31
2016-09-28T12:07:50.722Z,59.69
2016-09-28T12:08:50.742Z,59.89
2016-09-28T12:09:50.811Z,59.59
2016-09-28T12:10:50.814Z,59.69
2016-09-28T12:11:50.518Z,59.14
2016-09-28T12:12:50.862Z,58.75
2016-09-28T12:13:50.903Z,58.01
2016-09-28T12:14:50.924Z,58.65
2016-09-28T12:15:51.073Z,58.69
2016-09-28T12:16:50.672Z,57.81
2016-09-28T12:17:50.792Z,58.69
2016-09-28T12:18:51.036Z,57.71
2016-09-28T12:19:50.751Z,58.39
2016-09-28T12:20:51.106Z,58.98
2016-09-28T12:21:51.122Z,59.33
2016-09-28T12:22:51.160Z,58.75
2016-09-28T12:23:51.181Z,58.95
2016-09-28T12:24:51.213Z,58.85
2016-09-28T12:25:51.239Z,58.95
2016-09-28T12:26:51.295Z,59.66
2016-09-28T12:27:51.323Z,59.36
2016-09-28T12:28:51.332Z,59.46
2016-09-28T12:29:51.067Z,59.94
2016-09-28T12:30:51.373Z,58.69
2016-09-28T12:31:51.413Z,58.59
2016-09-28T12:32:51.444Z,58.81
2016-09-28T12:33:51.475Z,58.04
2016-09-28T12:34:51.197Z,58.14
2016-09-28T12:35:51.531Z,58.62
2016-09-28T12:36:51.549Z,59
2016-09-28T12:37:51.579Z,59.59
2016-09-28T12:38:51.616Z,58.91
2016-09-28T12:39:51.642Z,57.55
2016-09-28T12:40:51.676Z,57.43
2016-09-28T12:41:51.706Z,56.94
2016-09-28T12:42:51.733Z,58.01
2016-09-28T12:43:51.773Z,58.59
2016-09-28T12:44:51.799Z,57.62
2016-09-28T12:45:51.810Z,57.75
2016-09-28T12:46:51.852Z,56.87
2016-09-28T12:47:51.873Z,56.59
2016-09-28T12:48:51.596Z,55.32
2016-09-28T12:49:51.929Z,55.78
2016-09-28T12:50:51.963Z,57.53
2016-09-28T12:51:52.003Z,57.91
2016-09-28T12:52:52.019Z,58.78
2016-09-28T12:53:51.729Z,58.01
2016-09-28T12:54:52.078Z,59.43
2016-09-28T12:55:52.142Z,59.66
2016-09-28T12:56:51.834Z,59.33